Desert Springs, Nevada Weather observations

Data are for 10 minute period ending at time listed.
 Day   Time    Ave.   Ave.  Ave.  Vector   Max.   Total    Solar   
  of    of     Air    Rel.  Wind   Wind    Wind  Precip.   Rad.    
Year   Day     Temp.  Hum.  Speed  Dir.    Gust                    
2015   (PST)    F      %     mph   deg.    mph     in.     W/m2    
------------------------------------------------------------------- 
  86    5:00   48.0    54    6.0   115      7.0    1.97       0  
  86    6:00   47.0    60    2.0   247      8.0    1.97       0  
  86    7:00   49.0    56    2.0   248      4.0    1.97      46  
  86    8:00   53.0    53    3.0   183      7.0    1.97     251  
  86    9:00   57.0    47    5.0   133      8.0    1.97     458  
  86   10:00   64.0    37    4.0   127      8.0    1.97     641  
  86   11:00   69.0    19    6.0   234     12.0    1.97     778  
  86   12:00   71.0    15   12.0   259     21.0    1.97     864  
  86   13:00   73.0    15   11.0   243     22.0    1.97     885  
  86   14:00   73.0    12   15.0   244     25.0    1.97     851  
  86   15:00   74.0    14   14.0   254     24.0    1.97     752  
  86   16:00   73.0    17   17.0   274     26.0    1.97     598  
  86   17:00   70.0    19   22.0   282     30.0    1.97     412  
  86   18:00   67.0    22   16.0   286     29.0    1.97     184  
  86   19:00   61.0    29   11.0   279     31.0    1.97      13  
  86   20:00   58.0    28    3.0   212     22.0    1.97       0  
  86   21:00   57.0    30    8.0   344     22.0    1.97       0  
  86   22:00   57.0    28   14.0   254     25.0    1.97       0  
  86   23:00   55.0    35   18.0   258     30.0    1.97       0  
  87    0:00   54.0    35    7.0   257     29.0    1.97       0  
  87    1:00   51.0    43    7.0   295     13.0    1.97       0  
  87    2:00   53.0    37   16.0   285     23.0    1.97       0  
  87    3:00   53.0    36   14.0   268     26.0    1.97       0  
  87    4:00   50.0    43    5.0   285     25.0    1.97       0  

Return to Desert Springs, Nevada graphs page.


Western Regional Climate Center,wrcc@dri.edu